Weather observations for the past three days for
Beaver Island, Beaver Island Airport
Imperial (Metric)
Date Time (edt) Wind (mph) Vis. (mi.) Weather Sky Cond. Temperature (ºF) Relative Humidity Wind Chill (°F) Heat Index (°F) Pressure Precipitation (in)
Air Dwpt 6 hour altimeter (in) sea level (mb) 1 hr 3 hr 6 hr
Max. Min.
04 09:15 E 9 10.00 Mostly Cloudy BKN110 66.2 62.6 88% 29.97 0.0
04 08:55 E 9 10.00 Mostly Cloudy BKN110 66.2 62.6 88% 29.97 0.0 0.03
04 08:35 E 9 10.00 Mostly Cloudy SCT075 BKN110 64.4 62.6 94% 29.96 0.0
04 08:15 E 6 10.00 Mostly Cloudy SCT075 BKN120 64.4 62.6 94% 29.98 0.0
04 07:55 SE 9 10.00 Partly Cloudy FEW075 SCT120 64.4 62.6 66.9 62.8 94% 29.96 0.0 0.02
04 07:35 E 9 10.00 A Few Clouds FEW120 62.6 62.6 100% 29.95 0.0
04 07:15 E 9 10.00 Fair CLR 62.6 62.6 100% 29.95 0.0
04 06:55 E 9 10.00 Fair CLR 62.6 62.6 100% 29.96 0.0 0.02
04 06:35 E 6 10.00 Light Rain FEW055 FEW070 SCT120 62.6 62.6 100% 29.98 0.0
04 06:15 NE 3 7.00 Light Rain Fog/Mist FEW090 BKN110 64.4 62.6 94% 30.01 0.0
04 05:55 E 5 3.00 Light Rain Fog/Mist FEW065 SCT085 64.4 62.6 94% 30.01 0.0 0.01
04 05:35 NE 8 6.00 Light Rain Fog/Mist SCT050 BKN065 64.4 62.6 94% 30.02 0.0
04 05:15 NE 6 10.00 Overcast OVC050 66.2 60.8 83% 29.97 0.0
04 04:55 E 5 10.00 Mostly Cloudy BKN055 BKN110 66.2 60.8 83% 29.96 0.0
04 04:35 E 8 10.00 Overcast OVC055 66.2 60.8 83% 29.95 0.0
04 04:15 E 8 10.00 Overcast OVC055 66.2 62.6 88% 29.95 0.0
04 03:55 E 8 10.00 Overcast BKN055 OVC110 66.2 60.8 83% 29.96 0.0
04 03:35 E 9 10.00 Overcast BKN065 OVC110 66.2 60.8 83% 29.94 0.0
04 03:15 E 7 10.00 Overcast OVC065 66.2 62.6 88% 29.96 0.0
04 02:55 E 7 10.00 Mostly Cloudy BKN065 BKN110 66.2 60.8 83% 29.96 0.0
04 02:35 E 7 10.00 Mostly Cloudy FEW065 BKN110 66.2 60.8 83% 29.96 0.0
04 02:15 E 7 10.00 Overcast SCT065 OVC095 66.2 62.6 88% 29.96 0.0
04 01:55 E 7 10.00 Overcast BKN065 OVC095 66.2 62.6 67.6 59.4 88% 29.98 0.0
04 01:35 E 6 10.00 Overcast OVC095 66.2 62.6 88% 29.99 0.0
04 01:15 E 5 10.00 Mostly Cloudy BKN095 64.4 62.6 94% 29.99 0.0
04 00:55 E 5 10.00 A Few Clouds FEW095 60.8 60.8 100% 29.99 0.0
04 00:35 E 2 10.00 Fair CLR 62.6 60.8 94% 29.99 0.0
04 00:15 E 5 10.00 Fair CLR 60.8 60.8 100% 29.99 0.0
03 23:55 E 5 10.00 Fair CLR 62.6 60.8 94% 29.99 0.0
03 23:35 NE 3 10.00 Fair CLR 60.8 60.8 100% 29.99 0.0
03 23:15 NE 3 10.00 Fair CLR 60.8 60.8 100% 29.98 0.0
03 22:55 SE 1 10.00 Fair CLR 60.8 59 94% 29.99 0.0
03 22:35 SE 3 10.00 Fair CLR 60.8 59 94% 29.98 0.0
03 22:15 E 2 10.00 Fair CLR 59 59 100% 29.97 0.0
03 21:55 E 2 10.00 Fair CLR 60.8 59 94% 29.98 0.0
03 21:35 E 1 10.00 Fair CLR 60.8 59 94% 29.97 0.0
03 21:15 E 2 10.00 A Few Clouds FEW100 62.6 60.8 94% 29.97 0.0
03 20:55 E 2 10.00 Partly Cloudy FEW090 SCT110 62.6 60.8 94% 29.96 0.0
03 20:35 Vrbl 1 10.00 Mostly Cloudy BKN090 BKN110 62.6 60.8 94% 29.96 0.0
03 20:15 Vrbl 1 10.00 Partly Cloudy SCT100 66.2 60.8 83% 29.96 0.0
03 19:55 E 2 10.00 Mostly Cloudy BKN100 68 60.8 77.4 67.6 78% 29.95 0.0
03 19:35 E 2 10.00 Partly Cloudy SCT100 69.8 60.8 73% 29.95 0.0
03 19:15 SE 3 10.00 Fair CLR 73.4 57.2 57% 29.94 0.0
03 18:55 NE 5 10.00 Fair CLR 73.4 57.2 57% 29.93 0.0
03 18:35 E 5 10.00 Fair CLR 73.4 55.4 53% 29.93 0.0
03 18:15 E 6 10.00 Fair CLR 75.2 55.4 50% 78 29.93 0.0
03 17:55 NE 6 10.00 Fair CLR 75.2 55.4 50% 78 29.92 0.0
03 17:35 E 6 10.00 Fair CLR 75.2 55.4 50% 78 29.92 0.0
03 17:15 E 8 10.00 Fair CLR 75.2 55.4 50% 78 29.92 0.0
03 16:55 E 9 10.00 Fair CLR 77 53.6 44% 78 29.93 0.0
03 16:35 E 8 10.00 Fair CLR 77 53.6 44% 78 29.94 0.0
03 16:15 E 6 10.00 Fair CLR 77 55.4 47% 79 29.95 0.0
03 15:55 E 6 10.00 Fair CLR 75.2 55.4 50% 78 29.96 0.0
03 15:35 E 5 10.00 Partly Cloudy SCT090 73.4 57.2 57% 29.97 0.0
03 15:15 E 5 10.00 Overcast OVC090 73.4 57.2 57% 29.98 0.0
03 14:55 Vrbl 5 10.00 Mostly Cloudy BKN090 71.6 57.2 61% 29.99 0.0
03 14:49 Vrbl 5 10.00 Mostly Cloudy BKN090 73.4 57.2 57% 29.99 0.0
03 14:48 Vrbl 5 10.00 Mostly Cloudy BKN090 73.4 57.2 57% 0 0.0
03 13:55 SE 5 10.00 Mostly Cloudy BKN090 69.8 59 73.6 62.8 69% 30 0.0
03 13:35 E 5 10.00 Fair CLR 69.8 59 69% 29.99 0.0
03 13:15 E 5 10.00 Fair CLR 69.8 59 69% 29.98 0.0
03 12:55 E 6 10.00 Fair CLR 69.8 57.2 64% 29.97 0.0
03 12:35 NE 7 10.00 Fair CLR 71.6 59 65% 29.96 0.0
03 12:15 NE 8 10.00 Fair CLR 73.4 60.8 65% 29.97 0.0
03 11:55 E 8 10.00 Fair CLR 71.6 59 65% 29.97 0.0
03 11:35 E 6 10.00 A Few Clouds FEW090 69.8 59 69% 29.97 0.0
03 11:15 E 7 10.00 A Few Clouds FEW090 69.8 60.8 73% 29.97 0.0
03 10:15 E 7 10.00 Fair CLR 69.8 60.8 73% 29.97 0.0
03 09:55 E 6 10.00 Fair CLR 69.8 59 69% 29.97 0.0
03 09:35 E 7 10.00 A Few Clouds FEW044 69.8 60.8 73% 29.97 0.0
03 09:15 E 7 10.00 Partly Cloudy SCT044 68 60.8 78% 29.97 0.0
03 08:35 E 2 10.00 Overcast OVC046 66.2 62.6 88% 29.97 0.0
03 08:15 E 1 10.00 Overcast OVC046 64.4 62.6 94% 29.97 0.0
03 07:55 E 2 10.00 Overcast OVC048 62.6 62.6 63 59.7 100% 29.97 0.0
03 07:35 E 2 10.00 Overcast OVC048 62.6 60.8 94% 29.97 0.0
03 07:15 E 2 10.00 Overcast BKN046 OVC050 62.6 60.8 94% 29.96 0.0
03 06:55 E 3 10.00 Overcast BKN046 OVC050 60.8 60.8 100% 29.96 0.0
03 06:35 E 3 10.00 Overcast SCT044 OVC050 62.6 60.8 94% 29.96 0.0
03 06:15 E 3 10.00 Overcast BKN042 OVC060 62.6 60.8 94% 29.96 0.0
03 05:55 E 3 10.00 Mostly Cloudy SCT044 BKN060 60.8 60.8 100% 29.95 0.0
03 05:35 E 5 10.00 Mostly Cloudy SCT046 BKN065 62.6 60.8 94% 29.95 0.0
03 05:15 NE 5 10.00 Overcast SCT047 OVC065 62.6 60.8 94% 29.95 0.0
03 04:55 E 3 10.00 Overcast OVC044 62.6 62.6 100% 29.95 0.0
03 04:35 E 2 10.00 Overcast BKN044 OVC055 60.8 60.8 100% 29.95 0.0
03 04:15 SE 2 10.00 Mostly Cloudy BKN048 BKN055 BKN065 60.8 60.8 100% 29.95 0.0
03 03:55 E 2 9.00 Overcast OVC048 60.8 60.8 100% 29.95 0.0
03 03:35 Calm 2.50 Fog/Mist BKN046 60.8 60.8 100% 29.95 0.0
03 03:15 E 1 10.00 Overcast OVC046 60.8 60.8 100% 29.94 0.0
03 02:55 SE 1 10.00 Overcast OVC046 60.8 60.8 100% 29.94 0.0
03 02:35 SE 1 2.00 Fog/Mist OVC046 60.8 60.8 100% 29.94 0.0
03 02:15 Calm 0.50 Fog OVC046 60.8 60.8 100% 29.94 0.0
03 01:55 S 1 8.00 Mostly Cloudy BKN045 BKN050 60.8 60.8 70 59.9 100% 29.94 0.0
03 01:35 E 1 2.00 Fog/Mist OVC045 60.8 60.8 100% 29.94 0.0
03 01:15 E 2 10.00 Mostly Cloudy BKN043 60.8 60.8 100% 29.94 0.0
03 00:55 E 2 6.00 Fog/Mist SCT043 60.8 60.8 100% 29.94 0.0
03 00:35 Calm 0.50 Fog OVC043 60.8 60.8 100% 29.93 0.0
03 00:15 Calm 0.50 Fog BKN045 60.8 60.8 100% 29.93 0.0
02 23:55 SE 1 0.25 Fog VV000 62.6 60.8 94% 29.93 0.0
02 23:35 Calm 1.00 Fog/Mist CLR 62.6 62.6 100% 29.93 0.0
02 23:15 NE 1 1.00 Fog/Mist CLR 62.6 62.6 100% 29.92 0.0
02 22:55 E 1 1.75 Fog/Mist CLR 64.4 62.6 94% 29.92 0.0
02 22:35 NW 3 1.50 Fog/Mist CLR 64.4 64.4 100% 29.92 0.0
02 22:15 NW 2 10.00 Fair CLR 66.2 66.2 100% 29.92 0.0
02 21:55 W 5 10.00 Fair CLR 68 66.2 94% 29.92 0.0
02 21:35 W 6 10.00 Fair CLR 66.2 66.2 100% 29.91 0.0
02 21:15 W 3 10.00 Fair CLR 64.4 64.4 100% 29.91 0.0
02 20:55 W 3 10.00 Fair CLR 66.2 64.4 94% 29.9 0.0
02 20:35 W 3 10.00 Fair CLR 66.2 64.4 94% 29.9 0.0
02 20:15 W 3 10.00 Fair CLR 68 64.4 88% 29.9 0.0
02 19:55 W 2 10.00 Mostly Cloudy BKN110 69.8 64.4 76.5 69.8 83% 29.9 0.0
02 19:35 SW 5 10.00 Overcast OVC110 69.8 66.2 88% 29.9 0.0
02 19:15 SW 6 10.00 Mostly Cloudy BKN100 71.6 64.4 78% 29.9 0.0
02 18:55 W 8 10.00 A Few Clouds FEW100 71.6 64.4 78% 29.9 0.0
02 18:35 W 8 10.00 Fair CLR 73.4 62.6 69% 29.9 0.0
02 18:15 W 7 10.00 Partly Cloudy SCT110 73.4 62.6 69% 29.9 0.0
02 17:55 SW 7 10.00 Mostly Cloudy BKN110 73.4 64.4 74% 29.9 0.0
02 17:35 W 7 10.00 Fair CLR 73.4 62.6 69% 29.9 0.0
02 17:15 W 9 10.00 Fair CLR 75.2 62.6 65% 77 29.91 0.0
02 16:55 W 10 10.00 Fair CLR 75.2 62.6 65% 77 29.91 0.0
02 16:35 W 9 10.00 Fair CLR 75.2 62.6 65% 77 29.91 0.0
02 16:15 W 8 10.00 Fair CLR 75.2 62.6 65% 77 29.92 0.0
02 15:55 W 6 10.00 Fair CLR 75.2 60.8 61% 77 29.92 0.0
02 15:35 W 8 10.00 Fair CLR 75.2 60.8 61% 77 29.92 0.0
02 15:15 W 9 10.00 Fair CLR 75.2 62.6 65% 77 29.93 0.0
02 14:55 SW 8 10.00 Fair CLR 75.2 62.6 65% 77 29.93 0.0
02 14:35 SW 13 10.00 Fair CLR 73.4 62.6 69% 29.94 0.0
02 14:15 W 12 G 20 10.00 Fair CLR 75.2 64.4 69% 77 29.93 0.0
02 13:55 W 15 10.00 Fair CLR 75.2 64.4 74.7 65.5 69% 77 29.93 0.0
02 13:35 W 17 10.00 Fair CLR 73.4 62.6 69% 29.93 0.0
02 13:15 W 12 10.00 Fair CLR 73.4 62.6 69% 29.92 0.0
02 12:55 W 13 10.00 Fair CLR 73.4 64.4 74% 29.91 0.0
02 12:35 W 12 10.00 Fair CLR 73.4 64.4 74% 29.91 0.0
02 12:15 W 12 10.00 Partly Cloudy SCT100 73.4 66.2 78% 29.91 0.0
02 11:55 W 10 10.00 Overcast OVC100 69.8 64.4 83% 29.92 0.0
02 11:35 SW 9 10.00 Mostly Cloudy BKN110 71.6 66.2 83% 29.92 0.0
02 11:15 SW 9 10.00 Partly Cloudy FEW100 SCT120 69.8 66.2 88% 29.93 0.0
02 10:55 W 7 10.00 Mostly Cloudy BKN100 69.8 66.2 88% 29.93 0.0
02 10:35 SW 8 10.00 Overcast FEW075 BKN090 OVC110 68 66.2 94% 29.93 0.0
02 10:15 W 7 10.00 Light Rain FEW075 OVC100 68 66.2 94% 29.94 0.0
02 09:55 SW 3 10.00 Partly Cloudy SCT110 66.2 64.4 94% 29.89 0.0
02 09:35 NE 6 10.00 Light Rain FEW100 66.2 64.4 94% 29.84 0.0
02 09:15 NE 3 8.00 Light Rain FEW050 FEW080 BKN110 66.2 64.4 94% 29.88 0.0
02 08:55 W 10 10.00 Light Rain OVC100 66.2 64.4 94% 29.96 0.0
02 08:35 SW 10 G 18 10.00 Light Rain OVC110 68 64.4 88% 29.99 0.0
02 08:15 W 10 10.00 Light Rain BKN100 BKN110 68 64.4 88% 29.97 0.0
02 07:55 W 7 10.00 Partly Cloudy SCT090 66.2 64.4 71.4 60.4 94% 29.96 0.0
02 07:35 W 7 10.00 Fair CLR 66.2 64.4 94% 29.92 0.0
02 07:15 W 5 10.00 Fair CLR 62.6 62.6 100% 29.91 0.0
02 06:55 S 1 10.00 Fair CLR 62.6 62.6 100% 29.89 0.0
02 06:35 NW 1 6.00 Fog/Mist CLR 62.6 60.8 94% 29.89 0.0
02 06:15 Vrbl 1 3.00 Fog/Mist CLR 62.6 62.6 100% 29.89 0.0
02 05:55 S 1 3.00 Fog/Mist CLR 62.6 62.6 100% 29.89 0.0
02 05:35 Calm 0.25 Fog VV005 60.8 60.8 100% 29.89 0.0
02 05:15 SW 1 4.00 Fog/Mist CLR 62.6 62.6 100% 29.9 0.0
02 04:55 W 2 0.50 Fog VV002 62.6 62.6 100% 29.89 0.0
02 04:35 Calm 0.75 Fog/Mist VV005 64.4 64.4 100% 29.88 0.0
02 04:15 NW 2 3.00 Fog/Mist CLR 64.4 62.6 94% 29.88 0.0
02 03:55 W 3 3.00 Fog/Mist CLR 66.2 64.4 94% 29.88 0.0
02 03:35 NW 5 10.00 Fair CLR 68 66.2 94% 29.89 0.0
02 03:15 W 5 10.00 Fair CLR 68 66.2 94% 29.89 0.0
02 02:55 NW 5 10.00 Fair CLR 69.8 68 94% 29.88 0.0
02 02:35 NW 6 5.00 Fog/Mist CLR 69.8 69.8 100% 29.88 0.0
02 02:15 W 5 0.75 Fog/Mist BKN001 69.8 69.8 100% 29.88 0.0
02 01:55 W 6 1.25 Fog/Mist OVC001 71.6 71.6 76.1 71.2 100% 29.88 0.0
02 01:35 W 6 2.00 Fog/Mist OVC003 71.6 71.6 100% 29.88 0.0
02 01:15 W 6 2.50 Fog/Mist OVC003 73.4 71.6 94% 29.87 0.0
02 00:55 W 6 2.50 Fog/Mist OVC003 73.4 71.6 94% 29.87 0.0
02 00:35 W 10 2.50 Fog/Mist BKN003 73.4 71.6 94% 29.88 0.0
02 00:15 SW 12 4.00 Fog/Mist SCT005 73.4 73.4 100% 29.86 0.0
01 23:55 SW 14 G 18 5.00 Fog/Mist CLR 75.2 73.4 94% 74 29.86 0.0
01 23:35 SW 12 G 17 5.00 Fog/Mist CLR 73.4 73.4 100% 29.86 0.0
01 22:55 SW 12 4.00 Fog/Mist SCT004 73.4 71.6 94% 29.87 0.0
01 22:35 SW 9 3.00 Fog/Mist OVC004 73.4 73.4 100% 29.87 0.0
01 22:15 SW 10 4.00 Fog/Mist BKN004 73.4 73.4 100% 29.87 0.0
01 21:55 SW 7 5.00 Fog/Mist CLR 73.4 73.4 100% 29.87 0.0
01 21:35 SW 9 9.00 Fair CLR 73.4 71.6 94% 29.87 0.0
01 21:15 SW 6 10.00 Fair CLR 73.4 71.6 94% 29.87 0.0
01 20:55 SW 6 10.00 Fair CLR 73.4 69.8 89% 29.87 0.0
01 20:35 SW 7 10.00 Fair CLR 73.4 69.8 89% 29.87 0.0
01 20:15 SW 5 10.00 Fair CLR 75.2 69.8 83% 75 29.87 0.0
01 19:55 SW 5 10.00 Fair CLR 75.2 69.8 85.8 76.1 83% 75 29.87 0.0
01 19:35 SW 6 10.00 Fair CLR 78.8 69.8 74% 81 29.87 0.0
01 19:15 SW 5 10.00 Fair CLR 78.8 69.8 74% 81 29.87 0.0
01 18:55 SW 5 10.00 Fair CLR 80.6 69.8 70% 84 29.88 0.0
01 18:35 SW 5 10.00 Fair CLR 82.4 68 62% 85 29.88 0.0
01 18:15 S 5 10.00 Fair CLR 82.4 68 62% 85 29.88 0.0
01 17:55 W 5 10.00 Fair CLR 84.2 68 58% 87 29.88 0.0
01 17:35 SW 7 10.00 Fair CLR 84.2 66.2 55% 87 29.88 0.0
01 17:15 SW 7 10.00 Fair CLR 84.2 66.2 55% 87 29.88 0.0
01 16:55 SW 7 10.00 Fair CLR 84.2 68 58% 87 29.88 0.0
01 16:35 W 8 10.00 Fair CLR 86 68 55% 89 29.88 0.0
01 16:15 SW 7 10.00 Fair CLR 84.2 69.8 62% 88 29.89 0.0
01 15:55 SW 9 10.00 Fair CLR 84.2 69.8 62% 88 29.9 0.0
01 15:35 W 3 10.00 Fair CLR 84.2 66.2 55% 87 29.9 0.0
01 15:15 Vrbl 5 10.00 Fair CLR 84.2 71.6 66% 90 29.91 0.0
01 14:55 W 7 10.00 Fair CLR 84.2 69.8 62% 88 29.92 0.0
01 14:35 SW 6 10.00 Fair CLR 82.4 71.6 70% 87 29.93 0.0
01 14:15 W 6 10.00 Fair CLR 82.4 71.6 70% 87 29.93 0.0
01 13:55 Vrbl 6 10.00 Fair CLR 82.4 71.6 81.3 62.1 70% 87 29.93 0.0
01 13:35 W 8 10.00 Fair CLR 80.6 71.6 74% 85 29.94 0.0
01 13:15 W 8 10.00 A Few Clouds FEW018 78.8 71.6 79% 82 29.95 0.0
01 12:55 Vrbl 6 10.00 Partly Cloudy SCT018 78.8 71.6 79% 82 29.95 0.0
01 12:35 Vrbl 5 10.00 Fair CLR 78.8 71.6 79% 82 29.95 0.0
01 12:15 Vrbl 5 10.00 A Few Clouds FEW013 77 69.8 79% 79 29.95 0.0
01 11:55 NW 7 10.00 Partly Cloudy SCT011 77 69.8 79% 79 29.94 0.0
01 11:35 S 5 10.00 Partly Cloudy SCT009 77 71.6 83% 78 29.94 0.0
01 11:15 SE 5 10.00 A Few Clouds FEW005 73.4 69.8 89% 29.94 0.0
01 10:55 E 3 4.00 Fog/Mist BKN003 71.6 69.8 94% 29.94 0.0
01 10:35 E 7 10.00 Overcast OVC003 71.6 69.8 94% 29.93 0.0
01 10:15 E 6 9.00 Overcast OVC001 69.8 69.8 100% 29.93 0.0
01 09:55 E 3 2.00 Fog/Mist OVC001 68 68 100% 29.94 0.0
01 09:35 SE 3 2.00 Fog/Mist OVC001 68 68 100% 29.94 0.0
Date Time (edt) Wind (mph) Vis. (mi.) Weather Sky Cond. Air Dwpt Max. Min. Relative Humidity Wind Chill (°F) Heat Index (°F) altimeter (in) sea level (mb) 1 hr 3 hr 6 hr
6 hour
Temperature (ºF) Pressure Precipitation (in)